< < Back
Terminal Aerodrome Forecast


Current Version              Previous Versions:   1  2  3  4  5  6  7  8  9  

Terminal Aerodrome Forecast

971
FTUS42 KILM 032334
TAFILM
TAF
KILM 032334Z 0400/0424 16007KT P6SM VCSH SCT020
     FM040700 18009KT 6SM BR VCSH SCT025 SCT060 BKN120
     FM041500 18011KT 4SM SHRA SCT020 OVC050
      TEMPO 0416/0420 2SM TSRA BKN020CB
     FM042000 16010KT 5SM SHRA BKN050=

Latest METAR

813
SAUS70 KWBC 032300 RRF
MTRILM
METAR KILM 032253Z 16007KT 10SM CLR 26/24 A2994 RMK AO2 SLP138 T02610239
$


USA.gov is the U.S. government's official web portal to all federal, state and local government web resources and services.